sensor_id;sensor_type;location;lat;lon;timestamp;P1;durP1;ratioP1;P2;durP2;ratioP2
18174;SDS011;9212;50.894;16.714;2022-11-15T00:00:55;12.20;;;7.90;;
18174;SDS011;9212;50.894;16.714;2022-11-15T00:03:23;13.93;;;7.70;;
18174;SDS011;9212;50.894;16.714;2022-11-15T00:05:53;18.23;;;7.13;;
18174;SDS011;9212;50.894;16.714;2022-11-15T00:08:19;13.77;;;7.80;;
18174;SDS011;9212;50.894;16.714;2022-11-15T00:10:53;16.23;;;7.97;;
18174;SDS011;9212;50.894;16.714;2022-11-15T00:13:21;16.87;;;8.33;;
18174;SDS011;9212;50.894;16.714;2022-11-15T00:15:48;16.07;;;7.53;;
18174;SDS011;9212;50.894;16.714;2022-11-15T00:18:15;14.63;;;7.07;;
18174;SDS011;9212;50.894;16.714;2022-11-15T00:20:43;14.77;;;7.67;;
18174;SDS011;9212;50.894;16.714;2022-11-15T00:23:11;15.47;;;6.83;;
18174;SDS011;9212;50.894;16.714;2022-11-15T00:25:38;13.57;;;6.93;;
18174;SDS011;9212;50.894;16.714;2022-11-15T00:28:06;12.30;;;7.20;;
18174;SDS011;9212;50.894;16.714;2022-11-15T00:30:33;18.27;;;9.10;;
18174;SDS011;9212;50.894;16.714;2022-11-15T00:33:04;13.23;;;7.07;;
18174;SDS011;9212;50.894;16.714;2022-11-15T00:35:31;17.93;;;6.87;;
18174;SDS011;9212;50.894;16.714;2022-11-15T00:37:59;10.47;;;6.47;;
18174;SDS011;9212;50.894;16.714;2022-11-15T00:40:28;18.57;;;7.40;;
18174;SDS011;9212;50.894;16.714;2022-11-15T00:42:55;13.20;;;6.93;;
18174;SDS011;9212;50.894;16.714;2022-11-15T00:45:22;15.03;;;7.33;;
18174;SDS011;9212;50.894;16.714;2022-11-15T00:47:50;11.30;;;6.20;;
18174;SDS011;9212;50.894;16.714;2022-11-15T00:50:17;12.93;;;7.20;;
18174;SDS011;9212;50.894;16.714;2022-11-15T00:52:44;10.97;;;6.30;;
18174;SDS011;9212;50.894;16.714;2022-11-15T00:55:12;11.97;;;6.50;;
18174;SDS011;9212;50.894;16.714;2022-11-15T00:57:41;13.30;;;6.87;;
18174;SDS011;9212;50.894;16.714;2022-11-15T01:00:08;11.37;;;6.60;;
18174;SDS011;9212;50.894;16.714;2022-11-15T01:02:36;10.40;;;6.37;;
18174;SDS011;9212;50.894;16.714;2022-11-15T01:05:03;11.77;;;5.90;;
18174;SDS011;9212;50.894;16.714;2022-11-15T01:07:31;9.47;;;5.97;;
18174;SDS011;9212;50.894;16.714;2022-11-15T01:09:58;11.43;;;5.80;;
18174;SDS011;9212;50.894;16.714;2022-11-15T01:12:25;10.00;;;6.77;;
18174;SDS011;9212;50.894;16.714;2022-11-15T01:14:53;16.70;;;8.47;;
18174;SDS011;9212;50.894;16.714;2022-11-15T01:17:20;9.80;;;5.83;;
18174;SDS011;9212;50.894;16.714;2022-11-15T01:19:47;11.23;;;6.07;;
18174;SDS011;9212;50.894;16.714;2022-11-15T01:22:14;15.63;;;7.40;;
18174;SDS011;9212;50.894;16.714;2022-11-15T01:24:41;11.23;;;6.47;;
18174;SDS011;9212;50.894;16.714;2022-11-15T01:27:08;12.87;;;6.97;;
18174;SDS011;9212;50.894;16.714;2022-11-15T01:29:35;12.77;;;6.50;;
18174;SDS011;9212;50.894;16.714;2022-11-15T01:32:04;10.80;;;7.43;;
18174;SDS011;9212;50.894;16.714;2022-11-15T01:34:31;13.27;;;7.03;;
18174;SDS011;9212;50.894;16.714;2022-11-15T01:36:58;13.17;;;7.63;;
18174;SDS011;9212;50.894;16.714;2022-11-15T01:39:24;15.13;;;8.37;;
18174;SDS011;9212;50.894;16.714;2022-11-15T01:41:52;9.73;;;6.77;;
18174;SDS011;9212;50.894;16.714;2022-11-15T01:44:38;13.30;;;7.53;;
18174;SDS011;9212;50.894;16.714;2022-11-15T01:47:09;13.60;;;6.77;;
18174;SDS011;9212;50.894;16.714;2022-11-15T01:49:40;9.77;;;6.33;;
18174;SDS011;9212;50.894;16.714;2022-11-15T01:52:15;10.30;;;6.63;;
18174;SDS011;9212;50.894;16.714;2022-11-15T01:54:45;14.03;;;7.07;;
18174;SDS011;9212;50.894;16.714;2022-11-15T01:57:13;13.43;;;6.80;;
18174;SDS011;9212;50.894;16.714;2022-11-15T01:59:41;12.73;;;6.50;;
18174;SDS011;9212;50.894;16.714;2022-11-15T02:02:12;20.27;;;6.73;;
18174;SDS011;9212;50.894;16.714;2022-11-15T02:04:40;11.70;;;7.03;;
18174;SDS011;9212;50.894;16.714;2022-11-15T02:07:08;12.27;;;8.13;;
18174;SDS011;9212;50.894;16.714;2022-11-15T02:09:37;17.47;;;7.93;;
18174;SDS011;9212;50.894;16.714;2022-11-15T02:12:05;17.37;;;7.23;;
18174;SDS011;9212;50.894;16.714;2022-11-15T02:14:36;14.30;;;7.07;;
18174;SDS011;9212;50.894;16.714;2022-11-15T02:17:10;10.87;;;6.47;;
18174;SDS011;9212;50.894;16.714;2022-11-15T02:22:50;12.70;;;6.77;;
18174;SDS011;9212;50.894;16.714;2022-11-15T02:25:37;11.73;;;7.33;;
18174;SDS011;9212;50.894;16.714;2022-11-15T02:28:12;10.93;;;6.83;;
18174;SDS011;9212;50.894;16.714;2022-11-15T02:30:53;13.47;;;6.43;;
18174;SDS011;9212;50.894;16.714;2022-11-15T02:33:28;14.10;;;6.83;;
18174;SDS011;9212;50.894;16.714;2022-11-15T02:36:02;11.97;;;7.30;;
18174;SDS011;9212;50.894;16.714;2022-11-15T02:38:34;13.73;;;6.63;;
18174;SDS011;9212;50.894;16.714;2022-11-15T02:41:10;12.33;;;7.67;;
18174;SDS011;9212;50.894;16.714;2022-11-15T02:43:43;11.27;;;6.70;;
18174;SDS011;9212;50.894;16.714;2022-11-15T02:46:23;16.27;;;7.73;;
18174;SDS011;9212;50.894;16.714;2022-11-15T02:49:15;14.57;;;7.13;;
18174;SDS011;9212;50.894;16.714;2022-11-15T02:51:43;15.13;;;7.07;;
18174;SDS011;9212;50.894;16.714;2022-11-15T02:54:13;15.00;;;7.53;;
18174;SDS011;9212;50.894;16.714;2022-11-15T02:56:42;18.27;;;7.57;;
18174;SDS011;9212;50.894;16.714;2022-11-15T02:59:27;17.73;;;8.07;;
18174;SDS011;9212;50.894;16.714;2022-11-15T03:02:23;15.23;;;7.30;;
18174;SDS011;9212;50.894;16.714;2022-11-15T03:04:58;13.93;;;7.37;;
18174;SDS011;9212;50.894;16.714;2022-11-15T03:07:33;20.00;;;6.77;;
18174;SDS011;9212;50.894;16.714;2022-11-15T03:10:08;13.10;;;6.23;;
18174;SDS011;9212;50.894;16.714;2022-11-15T03:12:43;14.20;;;7.03;;
18174;SDS011;9212;50.894;16.714;2022-11-15T03:15:17;11.70;;;6.80;;
18174;SDS011;9212;50.894;16.714;2022-11-15T03:17:51;15.03;;;6.87;;
18174;SDS011;9212;50.894;16.714;2022-11-15T03:20:22;10.27;;;5.87;;
18174;SDS011;9212;50.894;16.714;2022-11-15T03:22:53;14.43;;;5.97;;
18174;SDS011;9212;50.894;16.714;2022-11-15T03:25:24;10.33;;;5.67;;
18174;SDS011;9212;50.894;16.714;2022-11-15T03:27:54;12.73;;;6.33;;
18174;SDS011;9212;50.894;16.714;2022-11-15T03:30:23;12.17;;;5.87;;
18174;SDS011;9212;50.894;16.714;2022-11-15T03:32:52;12.90;;;6.07;;
18174;SDS011;9212;50.894;16.714;2022-11-15T03:35:21;15.53;;;6.83;;
18174;SDS011;9212;50.894;16.714;2022-11-15T03:37:52;12.20;;;7.67;;
18174;SDS011;9212;50.894;16.714;2022-11-15T03:40:25;14.87;;;7.07;;
18174;SDS011;9212;50.894;16.714;2022-11-15T03:43:00;14.27;;;7.07;;
18174;SDS011;9212;50.894;16.714;2022-11-15T03:45:32;9.40;;;6.27;;
18174;SDS011;9212;50.894;16.714;2022-11-15T03:48:09;9.23;;;5.13;;
18174;SDS011;9212;50.894;16.714;2022-11-15T03:50:39;10.37;;;6.63;;
18174;SDS011;9212;50.894;16.714;2022-11-15T03:53:07;15.00;;;6.00;;
18174;SDS011;9212;50.894;16.714;2022-11-15T03:55:34;11.77;;;6.63;;
18174;SDS011;9212;50.894;16.714;2022-11-15T03:58:01;10.37;;;5.90;;
18174;SDS011;9212;50.894;16.714;2022-11-15T04:00:28;12.53;;;6.57;;
18174;SDS011;9212;50.894;16.714;2022-11-15T04:02:55;13.23;;;6.77;;
18174;SDS011;9212;50.894;16.714;2022-11-15T04:05:24;10.60;;;5.93;;
18174;SDS011;9212;50.894;16.714;2022-11-15T04:07:51;13.27;;;6.57;;
18174;SDS011;9212;50.894;16.714;2022-11-15T04:10:18;11.03;;;7.03;;
18174;SDS011;9212;50.894;16.714;2022-11-15T04:12:45;11.07;;;6.27;;
18174;SDS011;9212;50.894;16.714;2022-11-15T04:15:13;10.23;;;6.43;;
18174;SDS011;9212;50.894;16.714;2022-11-15T04:17:42;14.70;;;6.20;;
18174;SDS011;9212;50.894;16.714;2022-11-15T04:20:11;13.47;;;6.73;;
18174;SDS011;9212;50.894;16.714;2022-11-15T04:22:59;10.53;;;5.60;;
18174;SDS011;9212;50.894;16.714;2022-11-15T04:25:44;9.30;;;5.87;;
18174;SDS011;9212;50.894;16.714;2022-11-15T04:28:12;9.70;;;5.97;;
18174;SDS011;9212;50.894;16.714;2022-11-15T04:30:39;9.20;;;5.47;;
18174;SDS011;9212;50.894;16.714;2022-11-15T04:33:06;8.83;;;5.67;;
18174;SDS011;9212;50.894;16.714;2022-11-15T04:35:33;11.50;;;6.78;;
18174;SDS011;9212;50.894;16.714;2022-11-15T04:38:04;10.77;;;6.43;;
18174;SDS011;9212;50.894;16.714;2022-11-15T04:40:32;12.10;;;6.07;;
18174;SDS011;9212;50.894;16.714;2022-11-15T04:43:00;9.70;;;5.80;;
18174;SDS011;9212;50.894;16.714;2022-11-15T04:45:27;12.70;;;6.37;;
18174;SDS011;9212;50.894;16.714;2022-11-15T04:47:54;11.70;;;6.73;;
18174;SDS011;9212;50.894;16.714;2022-11-15T04:50:21;16.67;;;7.63;;
18174;SDS011;9212;50.894;16.714;2022-11-15T04:52:52;14.10;;;7.77;;
18174;SDS011;9212;50.894;16.714;2022-11-15T04:55:21;17.53;;;8.37;;
18174;SDS011;9212;50.894;16.714;2022-11-15T04:57:56;10.70;;;6.27;;
18174;SDS011;9212;50.894;16.714;2022-11-15T05:00:25;11.60;;;6.53;;
18174;SDS011;9212;50.894;16.714;2022-11-15T05:02:53;13.70;;;7.80;;
18174;SDS011;9212;50.894;16.714;2022-11-15T05:05:37;10.97;;;6.50;;
18174;SDS011;9212;50.894;16.714;2022-11-15T05:08:05;9.57;;;5.97;;
18174;SDS011;9212;50.894;16.714;2022-11-15T05:10:33;12.47;;;6.50;;
18174;SDS011;9212;50.894;16.714;2022-11-15T05:13:00;10.80;;;6.20;;
18174;SDS011;9212;50.894;16.714;2022-11-15T05:15:27;11.20;;;5.57;;
18174;SDS011;9212;50.894;16.714;2022-11-15T05:17:56;11.33;;;5.20;;
18174;SDS011;9212;50.894;16.714;2022-11-15T05:20:24;11.93;;;6.17;;
18174;SDS011;9212;50.894;16.714;2022-11-15T05:22:52;16.00;;;6.80;;
18174;SDS011;9212;50.894;16.714;2022-11-15T05:25:19;13.50;;;5.90;;
18174;SDS011;9212;50.894;16.714;2022-11-15T05:27:48;8.67;;;5.23;;
18174;SDS011;9212;50.894;16.714;2022-11-15T05:30:15;14.73;;;6.20;;
18174;SDS011;9212;50.894;16.714;2022-11-15T05:32:42;12.50;;;6.60;;
18174;SDS011;9212;50.894;16.714;2022-11-15T05:35:17;10.87;;;5.37;;
18174;SDS011;9212;50.894;16.714;2022-11-15T05:37:48;12.80;;;5.93;;
18174;SDS011;9212;50.894;16.714;2022-11-15T05:40:15;8.53;;;5.50;;
18174;SDS011;9212;50.894;16.714;2022-11-15T05:42:42;10.87;;;6.57;;
18174;SDS011;9212;50.894;16.714;2022-11-15T05:45:11;10.83;;;6.07;;
18174;SDS011;9212;50.894;16.714;2022-11-15T05:47:38;10.93;;;6.10;;
18174;SDS011;9212;50.894;16.714;2022-11-15T05:50:06;12.37;;;7.10;;
18174;SDS011;9212;50.894;16.714;2022-11-15T05:52:37;11.60;;;7.07;;
18174;SDS011;9212;50.894;16.714;2022-11-15T05:55:04;9.87;;;6.53;;
18174;SDS011;9212;50.894;16.714;2022-11-15T05:57:33;10.00;;;6.27;;
18174;SDS011;9212;50.894;16.714;2022-11-15T06:00:01;10.20;;;5.90;;
18174;SDS011;9212;50.894;16.714;2022-11-15T06:02:30;11.27;;;6.83;;
18174;SDS011;9212;50.894;16.714;2022-11-15T06:04:57;11.20;;;6.03;;
18174;SDS011;9212;50.894;16.714;2022-11-15T06:07:24;15.73;;;6.37;;
18174;SDS011;9212;50.894;16.714;2022-11-15T06:09:51;9.67;;;5.90;;
18174;SDS011;9212;50.894;16.714;2022-11-15T06:12:17;11.97;;;5.47;;
18174;SDS011;9212;50.894;16.714;2022-11-15T06:14:44;13.97;;;6.33;;
18174;SDS011;9212;50.894;16.714;2022-11-15T06:17:11;15.97;;;6.07;;
18174;SDS011;9212;50.894;16.714;2022-11-15T06:19:39;7.70;;;5.90;;
18174;SDS011;9212;50.894;16.714;2022-11-15T06:22:06;10.77;;;6.73;;
18174;SDS011;9212;50.894;16.714;2022-11-15T06:24:34;9.63;;;5.53;;
18174;SDS011;9212;50.894;16.714;2022-11-15T06:27:01;9.80;;;5.90;;
18174;SDS011;9212;50.894;16.714;2022-11-15T06:29:28;10.10;;;5.90;;
18174;SDS011;9212;50.894;16.714;2022-11-15T06:31:55;11.03;;;5.63;;
18174;SDS011;9212;50.894;16.714;2022-11-15T06:34:22;12.10;;;6.47;;
18174;SDS011;9212;50.894;16.714;2022-11-15T06:36:50;11.03;;;7.67;;
18174;SDS011;9212;50.894;16.714;2022-11-15T06:39:17;7.57;;;5.57;;
18174;SDS011;9212;50.894;16.714;2022-11-15T06:41:45;12.07;;;6.10;;
18174;SDS011;9212;50.894;16.714;2022-11-15T06:44:12;10.43;;;5.27;;
18174;SDS011;9212;50.894;16.714;2022-11-15T06:46:39;13.47;;;6.63;;
18174;SDS011;9212;50.894;16.714;2022-11-15T06:49:06;13.73;;;6.37;;
18174;SDS011;9212;50.894;16.714;2022-11-15T06:51:33;8.90;;;5.63;;
18174;SDS011;9212;50.894;16.714;2022-11-15T06:54:01;8.20;;;5.37;;
18174;SDS011;9212;50.894;16.714;2022-11-15T06:56:28;12.33;;;6.23;;
18174;SDS011;9212;50.894;16.714;2022-11-15T06:58:56;10.23;;;5.80;;
18174;SDS011;9212;50.894;16.714;2022-11-15T07:01:23;10.10;;;5.90;;
18174;SDS011;9212;50.894;16.714;2022-11-15T07:03:50;14.83;;;5.83;;
18174;SDS011;9212;50.894;16.714;2022-11-15T07:06:16;13.03;;;6.57;;
18174;SDS011;9212;50.894;16.714;2022-11-15T07:08:43;15.13;;;5.97;;
18174;SDS011;9212;50.894;16.714;2022-11-15T07:11:12;12.60;;;5.80;;
18174;SDS011;9212;50.894;16.714;2022-11-15T07:13:39;11.97;;;5.60;;
18174;SDS011;9212;50.894;16.714;2022-11-15T07:16:07;13.23;;;6.03;;
18174;SDS011;9212;50.894;16.714;2022-11-15T07:18:35;10.73;;;5.83;;
18174;SDS011;9212;50.894;16.714;2022-11-15T07:21:04;12.67;;;5.93;;
18174;SDS011;9212;50.894;16.714;2022-11-15T07:23:32;13.87;;;6.03;;
18174;SDS011;9212;50.894;16.714;2022-11-15T07:25:59;14.20;;;6.93;;
18174;SDS011;9212;50.894;16.714;2022-11-15T07:28:28;15.13;;;6.73;;
18174;SDS011;9212;50.894;16.714;2022-11-15T07:30:55;14.63;;;6.97;;
18174;SDS011;9212;50.894;16.714;2022-11-15T07:33:22;15.07;;;6.97;;
18174;SDS011;9212;50.894;16.714;2022-11-15T07:35:49;15.27;;;7.43;;
18174;SDS011;9212;50.894;16.714;2022-11-15T07:38:16;19.27;;;7.20;;
18174;SDS011;9212;50.894;16.714;2022-11-15T07:40:45;15.97;;;7.00;;
18174;SDS011;9212;50.894;16.714;2022-11-15T07:43:12;14.40;;;7.33;;
18174;SDS011;9212;50.894;16.714;2022-11-15T07:45:41;12.37;;;6.87;;
18174;SDS011;9212;50.894;16.714;2022-11-15T07:48:11;13.13;;;6.57;;
18174;SDS011;9212;50.894;16.714;2022-11-15T07:50:40;11.43;;;7.13;;
18174;SDS011;9212;50.894;16.714;2022-11-15T07:53:07;12.83;;;6.53;;
18174;SDS011;9212;50.894;16.714;2022-11-15T07:55:34;11.77;;;6.43;;
18174;SDS011;9212;50.894;16.714;2022-11-15T07:58:01;18.87;;;7.33;;
18174;SDS011;9212;50.894;16.714;2022-11-15T08:00:29;11.47;;;7.13;;
18174;SDS011;9212;50.894;16.714;2022-11-15T08:03:04;16.30;;;7.90;;
18174;SDS011;9212;50.894;16.714;2022-11-15T08:05:33;16.77;;;7.57;;
18174;SDS011;9212;50.894;16.714;2022-11-15T08:08:01;17.80;;;8.53;;
18174;SDS011;9212;50.894;16.714;2022-11-15T08:10:29;16.03;;;8.17;;
18174;SDS011;9212;50.894;16.714;2022-11-15T08:12:56;16.73;;;7.80;;
18174;SDS011;9212;50.894;16.714;2022-11-15T08:15:24;13.60;;;8.07;;
18174;SDS011;9212;50.894;16.714;2022-11-15T08:17:55;15.67;;;7.53;;
18174;SDS011;9212;50.894;16.714;2022-11-15T08:20:24;12.43;;;7.43;;
18174;SDS011;9212;50.894;16.714;2022-11-15T08:22:54;14.00;;;7.43;;
18174;SDS011;9212;50.894;16.714;2022-11-15T08:25:21;15.20;;;7.30;;
18174;SDS011;9212;50.894;16.714;2022-11-15T08:27:51;17.57;;;7.43;;
18174;SDS011;9212;50.894;16.714;2022-11-15T08:30:20;17.47;;;8.83;;
18174;SDS011;9212;50.894;16.714;2022-11-15T08:32:47;17.27;;;8.30;;
18174;SDS011;9212;50.894;16.714;2022-11-15T08:35:15;17.77;;;9.40;;
18174;SDS011;9212;50.894;16.714;2022-11-15T08:37:44;23.27;;;11.93;;
18174;SDS011;9212;50.894;16.714;2022-11-15T08:40:11;32.00;;;14.13;;
18174;SDS011;9212;50.894;16.714;2022-11-15T08:42:38;42.37;;;14.50;;
18174;SDS011;9212;50.894;16.714;2022-11-15T08:45:06;28.77;;;13.10;;
18174;SDS011;9212;50.894;16.714;2022-11-15T08:47:34;26.07;;;11.87;;
18174;SDS011;9212;50.894;16.714;2022-11-15T08:50:01;36.37;;;14.47;;
18174;SDS011;9212;50.894;16.714;2022-11-15T08:52:28;37.50;;;15.33;;
18174;SDS011;9212;50.894;16.714;2022-11-15T08:54:57;35.27;;;15.77;;
18174;SDS011;9212;50.894;16.714;2022-11-15T08:57:24;45.23;;;16.03;;
18174;SDS011;9212;50.894;16.714;2022-11-15T08:59:51;38.93;;;14.70;;
18174;SDS011;9212;50.894;16.714;2022-11-15T09:02:18;33.07;;;14.40;;
18174;SDS011;9212;50.894;16.714;2022-11-15T09:04:45;45.03;;;15.93;;
18174;SDS011;9212;50.894;16.714;2022-11-15T09:07:13;36.83;;;15.53;;
18174;SDS011;9212;50.894;16.714;2022-11-15T09:09:40;32.43;;;15.10;;
18174;SDS011;9212;50.894;16.714;2022-11-15T09:12:08;37.73;;;15.20;;
18174;SDS011;9212;50.894;16.714;2022-11-15T09:14:36;35.50;;;13.30;;
18174;SDS011;9212;50.894;16.714;2022-11-15T09:17:03;39.80;;;14.50;;
18174;SDS011;9212;50.894;16.714;2022-11-15T09:19:30;30.60;;;14.80;;
18174;SDS011;9212;50.894;16.714;2022-11-15T09:21:57;27.87;;;14.40;;
18174;SDS011;9212;50.894;16.714;2022-11-15T09:24:24;31.67;;;13.43;;
18174;SDS011;9212;50.894;16.714;2022-11-15T09:26:51;36.50;;;16.20;;
18174;SDS011;9212;50.894;16.714;2022-11-15T09:29:20;35.47;;;15.80;;
18174;SDS011;9212;50.894;16.714;2022-11-15T09:31:46;40.80;;;17.70;;
18174;SDS011;9212;50.894;16.714;2022-11-15T09:34:13;38.93;;;17.13;;
18174;SDS011;9212;50.894;16.714;2022-11-15T09:36:40;38.70;;;17.57;;
18174;SDS011;9212;50.894;16.714;2022-11-15T09:39:07;36.70;;;17.33;;
18174;SDS011;9212;50.894;16.714;2022-11-15T09:41:48;44.47;;;16.63;;
18174;SDS011;9212;50.894;16.714;2022-11-15T09:44:27;40.80;;;16.47;;
18174;SDS011;9212;50.894;16.714;2022-11-15T09:47:14;39.43;;;17.73;;
18174;SDS011;9212;50.894;16.714;2022-11-15T09:50:06;34.10;;;16.07;;
18174;SDS011;9212;50.894;16.714;2022-11-15T09:52:36;35.33;;;15.73;;
18174;SDS011;9212;50.894;16.714;2022-11-15T09:55:04;35.27;;;15.63;;
18174;SDS011;9212;50.894;16.714;2022-11-15T09:57:37;31.73;;;15.57;;
18174;SDS011;9212;50.894;16.714;2022-11-15T10:00:11;29.33;;;15.03;;
18174;SDS011;9212;50.894;16.714;2022-11-15T10:02:47;30.37;;;14.73;;
18174;SDS011;9212;50.894;16.714;2022-11-15T10:05:25;30.90;;;15.63;;
18174;SDS011;9212;50.894;16.714;2022-11-15T10:07:54;29.10;;;15.43;;
18174;SDS011;9212;50.894;16.714;2022-11-15T10:10:27;28.53;;;13.70;;
18174;SDS011;9212;50.894;16.714;2022-11-15T10:12:58;24.30;;;13.53;;
18174;SDS011;9212;50.894;16.714;2022-11-15T10:15:27;28.10;;;13.20;;
18174;SDS011;9212;50.894;16.714;2022-11-15T10:17:57;28.47;;;13.60;;
18174;SDS011;9212;50.894;16.714;2022-11-15T10:20:33;26.33;;;13.70;;
18174;SDS011;9212;50.894;16.714;2022-11-15T10:23:10;26.00;;;14.00;;
18174;SDS011;9212;50.894;16.714;2022-11-15T10:25:39;27.27;;;13.87;;
18174;SDS011;9212;50.894;16.714;2022-11-15T10:28:09;25.87;;;13.47;;
18174;SDS011;9212;50.894;16.714;2022-11-15T10:30:41;23.67;;;12.47;;
18174;SDS011;9212;50.894;16.714;2022-11-15T10:33:24;22.00;;;11.77;;
18174;SDS011;9212;50.894;16.714;2022-11-15T10:38:51;22.30;;;12.37;;
18174;SDS011;9212;50.894;16.714;2022-11-15T10:41:31;23.73;;;12.00;;
18174;SDS011;9212;50.894;16.714;2022-11-15T10:44:09;23.97;;;11.70;;
18174;SDS011;9212;50.894;16.714;2022-11-15T10:46:45;19.77;;;10.83;;
18174;SDS011;9212;50.894;16.714;2022-11-15T10:49:16;19.77;;;10.80;;
18174;SDS011;9212;50.894;16.714;2022-11-15T10:51:45;21.60;;;11.00;;
18174;SDS011;9212;50.894;16.714;2022-11-15T10:54:16;16.40;;;10.00;;
18174;SDS011;9212;50.894;16.714;2022-11-15T10:56:49;16.73;;;9.23;;
18174;SDS011;9212;50.894;16.714;2022-11-15T10:59:20;16.83;;;10.10;;
18174;SDS011;9212;50.894;16.714;2022-11-15T11:01:52;20.20;;;9.88;;
18174;SDS011;9212;50.894;16.714;2022-11-15T11:04:19;16.00;;;9.70;;
18174;SDS011;9212;50.894;16.714;2022-11-15T11:06:47;16.48;;;9.60;;
18174;SDS011;9212;50.894;16.714;2022-11-15T11:09:22;14.77;;;9.63;;
18174;SDS011;9212;50.894;16.714;2022-11-15T11:11:54;15.38;;;9.10;;
18174;SDS011;9212;50.894;16.714;2022-11-15T11:14:22;18.75;;;8.95;;
18174;SDS011;9212;50.894;16.714;2022-11-15T11:16:54;16.50;;;9.10;;
18174;SDS011;9212;50.894;16.714;2022-11-15T11:19:31;18.30;;;9.27;;
18174;SDS011;9212;50.894;16.714;2022-11-15T11:22:16;17.48;;;9.57;;
18174;SDS011;9212;50.894;16.714;2022-11-15T11:24:51;15.80;;;9.57;;
18174;SDS011;9212;50.894;16.714;2022-11-15T11:27:32;16.38;;;8.45;;
18174;SDS011;9212;50.894;16.714;2022-11-15T11:30:10;15.47;;;9.00;;
18174;SDS011;9212;50.894;16.714;2022-11-15T11:32:55;14.53;;;8.83;;
18174;SDS011;9212;50.894;16.714;2022-11-15T11:35:32;14.53;;;8.77;;
18174;SDS011;9212;50.894;16.714;2022-11-15T11:38:15;20.80;;;9.65;;
18174;SDS011;9212;50.894;16.714;2022-11-15T11:40:54;15.10;;;9.05;;
18174;SDS011;9212;50.894;16.714;2022-11-15T11:43:32;14.60;;;8.93;;
18174;SDS011;9212;50.894;16.714;2022-11-15T11:46:09;14.95;;;9.85;;
18174;SDS011;9212;50.894;16.714;2022-11-15T11:48:56;14.57;;;9.20;;
18174;SDS011;9212;50.894;16.714;2022-11-15T11:51:28;18.07;;;8.53;;
18174;SDS011;9212;50.894;16.714;2022-11-15T11:54:01;18.90;;;8.70;;
18174;SDS011;9212;50.894;16.714;2022-11-15T11:56:32;20.42;;;8.57;;
18174;SDS011;9212;50.894;16.714;2022-11-15T11:59:02;13.65;;;7.72;;
18174;SDS011;9212;50.894;16.714;2022-11-15T12:01:37;14.00;;;8.27;;
18174;SDS011;9212;50.894;16.714;2022-11-15T12:04:11;15.83;;;8.67;;
18174;SDS011;9212;50.894;16.714;2022-11-15T12:06:44;47.53;;;19.13;;
18174;SDS011;9212;50.894;16.714;2022-11-15T12:09:16;34.73;;;13.70;;
18174;SDS011;9212;50.894;16.714;2022-11-15T12:11:49;17.77;;;9.33;;
18174;SDS011;9212;50.894;16.714;2022-11-15T12:14:24;16.00;;;8.63;;
18174;SDS011;9212;50.894;16.714;2022-11-15T12:16:56;16.43;;;8.80;;
18174;SDS011;9212;50.894;16.714;2022-11-15T12:19:25;17.53;;;10.03;;
18174;SDS011;9212;50.894;16.714;2022-11-15T12:21:54;16.50;;;8.83;;
18174;SDS011;9212;50.894;16.714;2022-11-15T12:24:28;31.90;;;16.37;;
18174;SDS011;9212;50.894;16.714;2022-11-15T12:27:01;23.83;;;11.00;;
18174;SDS011;9212;50.894;16.714;2022-11-15T12:29:33;17.40;;;9.65;;
18174;SDS011;9212;50.894;16.714;2022-11-15T12:32:04;23.80;;;10.53;;
18174;SDS011;9212;50.894;16.714;2022-11-15T12:34:43;21.70;;;10.53;;
18174;SDS011;9212;50.894;16.714;2022-11-15T12:40:17;16.30;;;9.30;;
18174;SDS011;9212;50.894;16.714;2022-11-15T12:42:59;21.60;;;11.07;;
18174;SDS011;9212;50.894;16.714;2022-11-15T12:45:29;17.93;;;10.17;;
18174;SDS011;9212;50.894;16.714;2022-11-15T12:48:44;22.10;;;9.73;;
18174;SDS011;9212;50.894;16.714;2022-11-15T12:51:16;16.17;;;9.90;;
18174;SDS011;9212;50.894;16.714;2022-11-15T12:53:45;21.10;;;10.30;;
18174;SDS011;9212;50.894;16.714;2022-11-15T12:56:20;16.40;;;9.93;;
18174;SDS011;9212;50.894;16.714;2022-11-15T12:58:49;25.40;;;12.70;;
18174;SDS011;9212;50.894;16.714;2022-11-15T13:04:29;17.03;;;9.93;;
18174;SDS011;9212;50.894;16.714;2022-11-15T13:06:59;19.63;;;10.63;;
18174;SDS011;9212;50.894;16.714;2022-11-15T13:18:32;19.07;;;11.10;;
18174;SDS011;9212;50.894;16.714;2022-11-15T13:21:01;17.87;;;10.20;;
18174;SDS011;9212;50.894;16.714;2022-11-15T13:23:56;22.33;;;11.03;;
18174;SDS011;9212;50.894;16.714;2022-11-15T13:26:24;18.97;;;10.67;;
18174;SDS011;9212;50.894;16.714;2022-11-15T13:28:51;28.00;;;15.27;;
18174;SDS011;9212;50.894;16.714;2022-11-15T13:31:24;21.83;;;11.87;;
18174;SDS011;9212;50.894;16.714;2022-11-15T13:34:03;23.10;;;12.30;;
18174;SDS011;9212;50.894;16.714;2022-11-15T13:36:43;29.30;;;14.20;;
18174;SDS011;9212;50.894;16.714;2022-11-15T13:39:14;29.07;;;15.13;;
18174;SDS011;9212;50.894;16.714;2022-11-15T13:41:51;23.77;;;13.47;;
18174;SDS011;9212;50.894;16.714;2022-11-15T13:44:19;23.90;;;13.23;;
18174;SDS011;9212;50.894;16.714;2022-11-15T13:46:47;26.17;;;14.17;;
18174;SDS011;9212;50.894;16.714;2022-11-15T13:49:14;25.73;;;14.40;;
18174;SDS011;9212;50.894;16.714;2022-11-15T13:51:43;29.30;;;14.43;;
18174;SDS011;9212;50.894;16.714;2022-11-15T13:54:16;42.23;;;19.67;;
18174;SDS011;9212;50.894;16.714;2022-11-15T13:56:47;70.47;;;31.10;;
18174;SDS011;9212;50.894;16.714;2022-11-15T13:59:20;60.10;;;29.70;;
18174;SDS011;9212;50.894;16.714;2022-11-15T14:01:51;39.30;;;20.17;;
18174;SDS011;9212;50.894;16.714;2022-11-15T14:04:20;41.03;;;21.53;;
18174;SDS011;9212;50.894;16.714;2022-11-15T14:06:50;40.77;;;20.33;;
18174;SDS011;9212;50.894;16.714;2022-11-15T14:09:30;58.40;;;27.73;;
18174;SDS011;9212;50.894;16.714;2022-11-15T14:12:00;52.60;;;25.23;;
18174;SDS011;9212;50.894;16.714;2022-11-15T14:14:28;37.00;;;18.40;;
18174;SDS011;9212;50.894;16.714;2022-11-15T14:16:56;33.90;;;17.40;;
18174;SDS011;9212;50.894;16.714;2022-11-15T14:19:35;23.70;;;13.80;;
18174;SDS011;9212;50.894;16.714;2022-11-15T14:22:10;21.90;;;12.57;;
18174;SDS011;9212;50.894;16.714;2022-11-15T14:24:44;23.43;;;12.73;;
18174;SDS011;9212;50.894;16.714;2022-11-15T14:27:20;29.47;;;13.97;;
18174;SDS011;9212;50.894;16.714;2022-11-15T14:29:49;29.77;;;15.37;;
18174;SDS011;9212;50.894;16.714;2022-11-15T14:32:17;22.43;;;13.20;;
18174;SDS011;9212;50.894;16.714;2022-11-15T14:34:46;22.87;;;14.57;;
18174;SDS011;9212;50.894;16.714;2022-11-15T14:37:18;43.80;;;22.70;;
18174;SDS011;9212;50.894;16.714;2022-11-15T14:39:49;42.27;;;22.20;;
18174;SDS011;9212;50.894;16.714;2022-11-15T14:42:16;39.40;;;19.97;;
18174;SDS011;9212;50.894;16.714;2022-11-15T14:44:44;29.00;;;16.93;;
18174;SDS011;9212;50.894;16.714;2022-11-15T14:47:10;22.00;;;13.10;;
18174;SDS011;9212;50.894;16.714;2022-11-15T14:49:38;23.33;;;12.63;;
18174;SDS011;9212;50.894;16.714;2022-11-15T14:52:07;35.93;;;17.33;;
18174;SDS011;9212;50.894;16.714;2022-11-15T14:54:48;26.13;;;15.33;;
18174;SDS011;9212;50.894;16.714;2022-11-15T14:57:15;20.37;;;12.20;;
18174;SDS011;9212;50.894;16.714;2022-11-15T14:59:42;21.03;;;12.10;;
18174;SDS011;9212;50.894;16.714;2022-11-15T15:02:09;23.30;;;12.60;;
18174;SDS011;9212;50.894;16.714;2022-11-15T15:04:42;19.13;;;11.07;;
18174;SDS011;9212;50.894;16.714;2022-11-15T15:07:09;19.60;;;10.50;;
18174;SDS011;9212;50.894;16.714;2022-11-15T15:09:36;17.17;;;9.97;;
18174;SDS011;9212;50.894;16.714;2022-11-15T15:12:04;18.90;;;9.83;;